Time;durP1;ratioP1;P1;durP2;ratioP2;P2;SDS_P1;SDS_P2;PMS_P1;PMS_P2;Temp;Humidity;BMP_temperature;BMP_pressure;BME280_temperature;BME280_humidity;BME280_pressure;Samples;Min_cycle;Max_cycle;Signal;HPM_P1;HPM_P2
2023/05/25 00:00:20;;;;;;;25.67;17.13;;;;;;;;;;5053692;28;20477;-70
2023/05/25 00:02:47;;;;;;;22.93;15.40;;;;;;;;;;5054056;28;20481;-69
2023/05/25 00:05:17;;;;;;;20.47;15.30;;;;;;;;;;5054125;28;20974;-69
2023/05/25 00:07:44;;;;;;;29.10;13.90;;;;;;;;;;5058815;28;20501;-70
2023/05/25 00:10:11;;;;;;;25.37;15.70;;;;;;;;;;5073557;28;20472;-70
2023/05/25 00:12:38;;;;;;;20.17;15.80;;;;;;;;;;5073898;28;20452;-70
2023/05/25 00:15:06;;;;;;;19.80;15.43;;;;;;;;;;5073693;28;20452;-70
2023/05/25 00:17:35;;;;;;;18.07;14.17;;;;;;;;;;5073933;28;20501;-70
2023/05/25 00:20:08;;;;;;;19.30;13.17;;;;;;;;;;5073376;28;20479;-70
2023/05/25 00:22:36;;;;;;;23.67;14.27;;;;;;;;;;5073715;28;20863;-70
2023/05/25 00:25:03;;;;;;;20.67;14.93;;;;;;;;;;5073512;28;20462;-70
2023/05/25 00:27:30;;;;;;;23.63;13.57;;;;;;;;;;5073568;28;20447;-70
2023/05/25 00:29:57;;;;;;;26.07;14.77;;;;;;;;;;5072682;28;21020;-70
2023/05/25 00:32:25;;;;;;;19.03;13.70;;;;;;;;;;5073632;28;20443;-70
2023/05/25 00:34:52;;;;;;;23.67;15.60;;;;;;;;;;5073611;28;20458;-70
2023/05/25 00:37:19;;;;;;;19.20;13.37;;;;;;;;;;5073431;28;20451;-70
2023/05/25 00:39:47;;;;;;;21.33;13.63;;;;;;;;;;5073093;28;20471;-70
2023/05/25 00:42:14;;;;;;;26.67;15.17;;;;;;;;;;5073099;28;20965;-70
2023/05/25 00:44:42;;;;;;;26.53;15.53;;;;;;;;;;5073441;28;20958;-70
2023/05/25 00:47:11;;;;;;;21.30;13.90;;;;;;;;;;5073267;28;20519;-70
2023/05/25 00:49:38;;;;;;;25.30;13.87;;;;;;;;;;5072641;28;20463;-70
2023/05/25 00:52:06;;;;;;;24.80;14.77;;;;;;;;;;5073159;28;20455;-70
2023/05/25 00:54:34;;;;;;;26.10;13.50;;;;;;;;;;5073149;28;20478;-70
2023/05/25 00:57:03;;;;;;;25.13;13.47;;;;;;;;;;5073033;28;20478;-70
2023/05/25 00:59:35;;;;;;;20.17;11.87;;;;;;;;;;5072832;28;20532;-70
2023/05/25 01:02:04;;;;;;;22.63;13.57;;;;;;;;;;5073077;28;20460;-70
2023/05/25 01:04:32;;;;;;;19.63;13.33;;;;;;;;;;5073018;28;20513;-70
2023/05/25 01:07:00;;;;;;;24.03;13.07;;;;;;;;;;5072917;28;20452;-70
2023/05/25 01:09:28;;;;;;;17.57;12.43;;;;;;;;;;5072626;28;20503;-70
2023/05/25 01:11:56;;;;;;;26.13;14.13;;;;;;;;;;5073006;28;20451;-70
2023/05/25 01:14:25;;;;;;;18.17;12.43;;;;;;;;;;5073036;28;20444;-70
2023/05/25 01:16:54;;;;;;;21.17;13.00;;;;;;;;;;5072951;28;20447;-70
2023/05/25 01:19:21;;;;;;;23.67;12.20;;;;;;;;;;5072634;28;20504;-70
2023/05/25 01:21:55;;;;;;;16.50;13.27;;;;;;;;;;5072896;28;20968;-71
2023/05/25 01:24:25;;;;;;;18.80;12.07;;;;;;;;;;5072896;28;20483;-71
2023/05/25 01:26:55;;;;;;;17.47;12.80;;;;;;;;;;5072867;28;20452;-71
2023/05/25 01:29:24;;;;;;;16.17;13.70;;;;;;;;;;5072484;28;20487;-71
2023/05/25 01:31:52;;;;;;;20.43;14.20;;;;;;;;;;5072213;28;20502;-71
2023/05/25 01:34:20;;;;;;;17.23;13.17;;;;;;;;;;5072724;28;20447;-70
2023/05/25 01:36:47;;;;;;;19.00;12.67;;;;;;;;;;5072654;28;20466;-70
2023/05/25 01:39:16;;;;;;;16.43;11.47;;;;;;;;;;5072492;28;20475;-71
2023/05/25 01:41:43;;;;;;;19.30;12.47;;;;;;;;;;5072715;28;20447;-70
2023/05/25 01:44:10;;;;;;;16.10;11.57;;;;;;;;;;5072414;28;20490;-70
2023/05/25 01:46:38;;;;;;;14.77;12.00;;;;;;;;;;5072579;28;20852;-70
2023/05/25 01:49:10;;;;;;;15.07;12.00;;;;;;;;;;5072329;28;20467;-70
2023/05/25 01:51:39;;;;;;;23.77;13.20;;;;;;;;;;5072721;28;20833;-70
2023/05/25 01:54:09;;;;;;;21.13;14.00;;;;;;;;;;5072522;28;20447;-70
2023/05/25 01:56:38;;;;;;;23.40;11.43;;;;;;;;;;5072817;28;20443;-70
2023/05/25 01:59:08;;;;;;;18.97;10.20;;;;;;;;;;5072063;28;20478;-70
2023/05/25 02:01:36;;;;;;;17.13;11.47;;;;;;;;;;5074865;28;20448;-70
2023/05/25 02:04:04;;;;;;;18.97;12.90;;;;;;;;;;5076170;28;20545;-70
2023/05/25 02:06:31;;;;;;;19.20;13.00;;;;;;;;;;5076225;28;20458;-70
2023/05/25 02:08:58;;;;;;;20.70;13.00;;;;;;;;;;5076007;28;21007;-70
2023/05/25 02:11:26;;;;;;;13.60;11.80;;;;;;;;;;5076307;28;20471;-70
2023/05/25 02:13:54;;;;;;;21.20;13.87;;;;;;;;;;5076046;28;20452;-70
2023/05/25 02:16:22;;;;;;;17.83;13.07;;;;;;;;;;5076133;28;20462;-70
2023/05/25 02:18:49;;;;;;;24.93;15.20;;;;;;;;;;5076014;28;20475;-70
2023/05/25 02:21:17;;;;;;;22.90;13.27;;;;;;;;;;5075890;28;20461;-70
2023/05/25 02:23:44;;;;;;;19.87;14.33;;;;;;;;;;5075934;28;20899;-70
2023/05/25 02:26:11;;;;;;;23.40;13.67;;;;;;;;;;5075768;28;20451;-70
2023/05/25 02:28:38;;;;;;;25.90;13.67;;;;;;;;;;5075483;28;20479;-71
2023/05/25 02:31:06;;;;;;;25.10;14.43;;;;;;;;;;5075363;28;20459;-71
2023/05/25 02:33:33;;;;;;;19.53;14.37;;;;;;;;;;5075837;28;20454;-70
2023/05/25 02:36:00;;;;;;;19.90;14.30;;;;;;;;;;5075716;28;20458;-70
2023/05/25 02:38:27;;;;;;;22.23;14.27;;;;;;;;;;5075478;28;20489;-72
2023/05/25 02:40:55;;;;;;;17.53;13.67;;;;;;;;;;5075708;28;20465;-72
2023/05/25 02:43:22;;;;;;;24.50;14.93;;;;;;;;;;5075531;28;20490;-72
2023/05/25 02:45:49;;;;;;;26.13;14.13;;;;;;;;;;5075687;28;20463;-70
2023/05/25 02:48:17;;;;;;;23.13;14.10;;;;;;;;;;5075172;28;20443;-71
2023/05/25 02:50:44;;;;;;;18.57;13.30;;;;;;;;;;5075540;28;20444;-70
2023/05/25 02:53:11;;;;;;;21.03;13.97;;;;;;;;;;5075578;28;20451;-70
2023/05/25 02:55:39;;;;;;;18.37;13.50;;;;;;;;;;5075489;28;20451;-70
2023/05/25 02:58:06;;;;;;;16.87;12.60;;;;;;;;;;5075294;28;20457;-70
2023/05/25 03:00:33;;;;;;;15.80;13.20;;;;;;;;;;5074948;28;20458;-70
2023/05/25 03:03:00;;;;;;;22.70;13.50;;;;;;;;;;5075410;28;20930;-70
2023/05/25 03:05:29;;;;;;;27.07;14.57;;;;;;;;;;5075249;28;20508;-70
2023/05/25 03:07:56;;;;;;;24.67;14.70;;;;;;;;;;5075051;28;20499;-70
2023/05/25 03:10:23;;;;;;;21.67;13.50;;;;;;;;;;5074725;28;20981;-70
2023/05/25 03:12:50;;;;;;;29.60;15.30;;;;;;;;;;5074595;28;20455;-70
2023/05/25 03:15:17;;;;;;;24.70;12.77;;;;;;;;;;5074902;28;20466;-70
2023/05/25 03:17:44;;;;;;;18.90;12.73;;;;;;;;;;5074933;28;20455;-70
2023/05/25 03:20:14;;;;;;;21.13;14.57;;;;;;;;;;5074558;28;20566;-70
2023/05/25 03:22:42;;;;;;;19.03;13.37;;;;;;;;;;5074843;28;20464;-70
2023/05/25 03:25:11;;;;;;;19.93;12.33;;;;;;;;;;5074675;28;20494;-70
2023/05/25 03:27:39;;;;;;;22.27;14.00;;;;;;;;;;5074792;28;20455;-70
2023/05/25 03:30:07;;;;;;;24.47;12.83;;;;;;;;;;5074064;28;20521;-70
2023/05/25 03:32:34;;;;;;;20.57;13.30;;;;;;;;;;5074796;28;20447;-70
2023/05/25 03:35:01;;;;;;;18.40;12.80;;;;;;;;;;5074584;28;20443;-70
2023/05/25 03:37:28;;;;;;;17.70;13.73;;;;;;;;;;5074611;28;20946;-70
2023/05/25 03:39:56;;;;;;;16.57;11.50;;;;;;;;;;5074274;28;20476;-70
2023/05/25 03:42:23;;;;;;;19.30;12.30;;;;;;;;;;5074488;28;20460;-70
2023/05/25 03:44:50;;;;;;;18.00;13.60;;;;;;;;;;5074548;28;20510;-70
2023/05/25 03:47:17;;;;;;;17.17;10.63;;;;;;;;;;5074384;28;20447;-70
2023/05/25 03:49:45;;;;;;;15.37;12.10;;;;;;;;;;5074119;28;20996;-70
2023/05/25 03:52:12;;;;;;;20.93;11.83;;;;;;;;;;5074166;28;20965;-70
2023/05/25 03:54:39;;;;;;;19.10;11.90;;;;;;;;;;5074401;28;20474;-70
2023/05/25 03:57:07;;;;;;;21.73;12.40;;;;;;;;;;5073976;28;20446;-70
2023/05/25 03:59:35;;;;;;;21.07;11.17;;;;;;;;;;5074007;28;20475;-70
2023/05/25 04:02:02;;;;;;;15.37;11.73;;;;;;;;;;5073968;28;20452;-71
2023/05/25 04:04:29;;;;;;;18.93;12.13;;;;;;;;;;5074076;28;20483;-70
2023/05/25 04:06:56;;;;;;;14.70;10.40;;;;;;;;;;5074047;28;20454;-70
2023/05/25 04:09:23;;;;;;;15.07;10.77;;;;;;;;;;5073841;28;21000;-71
2023/05/25 04:11:50;;;;;;;14.10;9.40;;;;;;;;;;5073961;28;20813;-70
2023/05/25 04:14:19;;;;;;;14.83;8.70;;;;;;;;;;5073788;28;20455;-70
2023/05/25 04:16:47;;;;;;;16.67;9.07;;;;;;;;;;5073784;28;20452;-70
2023/05/25 04:19:14;;;;;;;10.93;7.80;;;;;;;;;;5073490;28;20885;-73
2023/05/25 04:21:41;;;;;;;16.47;9.37;;;;;;;;;;5073694;28;20834;-73
2023/05/25 04:24:08;;;;;;;11.50;7.60;;;;;;;;;;5072789;28;20489;-73
2023/05/25 04:26:35;;;;;;;12.10;8.17;;;;;;;;;;5073746;28;20452;-73
2023/05/25 04:29:02;;;;;;;18.00;8.33;;;;;;;;;;5073131;28;20479;-73
2023/05/25 04:31:31;;;;;;;20.73;6.87;;;;;;;;;;5073115;28;20852;-73
2023/05/25 04:33:58;;;;;;;11.40;7.90;;;;;;;;;;5073542;28;20949;-73
2023/05/25 04:36:25;;;;;;;12.73;8.53;;;;;;;;;;5073413;28;20796;-73
2023/05/25 04:38:53;;;;;;;11.30;6.23;;;;;;;;;;5063434;28;20484;-73
2023/05/25 04:41:20;;;;;;;10.70;7.17;;;;;;;;;;5053202;28;20452;-73
2023/05/25 04:43:49;;;;;;;11.23;6.87;;;;;;;;;;5053161;28;20488;-73
2023/05/25 04:46:16;;;;;;;11.80;7.50;;;;;;;;;;5060493;28;20459;-73
2023/05/25 04:48:45;;;;;;;7.77;6.00;;;;;;;;;;5072082;28;20487;-74
2023/05/25 04:51:12;;;;;;;12.40;5.93;;;;;;;;;;5072628;28;20467;-73
2023/05/25 04:53:39;;;;;;;15.00;7.73;;;;;;;;;;5073430;28;20444;-73
2023/05/25 04:56:07;;;;;;;13.57;5.73;;;;;;;;;;5072834;28;20458;-74
2023/05/25 04:58:34;;;;;;;12.73;7.73;;;;;;;;;;5072771;28;20839;-72
2023/05/25 05:01:01;;;;;;;11.63;7.70;;;;;;;;;;5072996;28;20452;-73
2023/05/25 05:03:28;;;;;;;10.27;7.00;;;;;;;;;;5072837;28;20453;-70
2023/05/25 05:05:56;;;;;;;12.70;8.17;;;;;;;;;;5072856;28;20505;-72
2023/05/25 05:08:23;;;;;;;12.43;8.50;;;;;;;;;;5072480;28;20472;-73
2023/05/25 05:10:51;;;;;;;11.00;8.13;;;;;;;;;;5072747;28;20451;-73
2023/05/25 05:13:18;;;;;;;10.80;7.50;;;;;;;;;;5072365;28;20973;-73
2023/05/25 05:15:45;;;;;;;15.23;8.63;;;;;;;;;;5072838;28;20827;-73
2023/05/25 05:18:12;;;;;;;13.27;8.23;;;;;;;;;;5072438;28;20942;-71
2023/05/25 05:20:40;;;;;;;12.57;8.00;;;;;;;;;;5072740;28;20976;-70
2023/05/25 05:23:08;;;;;;;9.10;7.10;;;;;;;;;;5072539;28;20462;-71
2023/05/25 05:25:36;;;;;;;16.57;7.63;;;;;;;;;;5072632;28;20483;-70
2023/05/25 05:28:03;;;;;;;11.13;8.20;;;;;;;;;;5072301;28;20504;-70
2023/05/25 05:30:31;;;;;;;9.60;6.17;;;;;;;;;;5072470;28;20451;-70
2023/05/25 05:32:58;;;;;;;11.13;8.17;;;;;;;;;;5072811;28;20474;-70
2023/05/25 05:35:25;;;;;;;16.50;8.13;;;;;;;;;;5074704;28;20478;-71
2023/05/25 05:37:52;;;;;;;14.50;7.33;;;;;;;;;;5076486;28;20466;-72
2023/05/25 05:40:20;;;;;;;14.50;7.83;;;;;;;;;;5076289;28;20479;-71
2023/05/25 05:42:48;;;;;;;12.43;7.30;;;;;;;;;;5076596;28;20832;-71
2023/05/25 05:45:15;;;;;;;13.20;7.70;;;;;;;;;;5076483;28;20510;-70
2023/05/25 05:47:42;;;;;;;14.47;8.50;;;;;;;;;;5076840;28;20452;-71
2023/05/25 05:50:09;;;;;;;12.73;7.63;;;;;;;;;;5076401;28;20475;-71
2023/05/25 05:52:36;;;;;;;13.87;7.27;;;;;;;;;;5076483;28;20537;-70
2023/05/25 05:55:04;;;;;;;15.40;8.20;;;;;;;;;;5076462;28;20450;-70
2023/05/25 05:57:32;;;;;;;13.70;9.27;;;;;;;;;;5076772;28;20463;-70
2023/05/25 05:59:59;;;;;;;12.67;7.63;;;;;;;;;;5076206;28;20475;-70
2023/05/25 06:02:26;;;;;;;18.00;7.63;;;;;;;;;;5076537;28;20460;-70
2023/05/25 06:04:54;;;;;;;13.10;7.97;;;;;;;;;;5076247;28;20483;-70
2023/05/25 06:07:21;;;;;;;14.07;7.87;;;;;;;;;;5076202;28;20455;-71
2023/05/25 06:09:48;;;;;;;8.63;6.87;;;;;;;;;;5072977;28;20472;-71
2023/05/25 06:12:15;;;;;;;10.20;5.67;;;;;;;;;;5056143;28;20452;-71
2023/05/25 06:14:48;;;;;;;14.90;8.30;;;;;;;;;;5056673;28;20433;-70
2023/05/25 06:17:15;;;;;;;12.73;8.20;;;;;;;;;;5056137;28;20461;-71
2023/05/25 06:19:42;;;;;;;13.50;7.00;;;;;;;;;;5055876;28;20985;-70
2023/05/25 06:22:10;;;;;;;18.67;7.90;;;;;;;;;;5056232;28;20479;-70
2023/05/25 06:24:37;;;;;;;15.40;8.40;;;;;;;;;;5055991;28;20902;-71
2023/05/25 06:27:04;;;;;;;13.50;7.30;;;;;;;;;;5055840;28;20479;-71
2023/05/25 06:29:31;;;;;;;16.00;8.03;;;;;;;;;;5055674;28;20483;-71
2023/05/25 06:31:59;;;;;;;11.87;6.70;;;;;;;;;;5055695;28;20794;-71
2023/05/25 06:34:27;;;;;;;15.10;6.50;;;;;;;;;;5055918;28;20451;-71
2023/05/25 06:36:54;;;;;;;12.40;7.50;;;;;;;;;;5055928;28;20829;-71
2023/05/25 06:39:21;;;;;;;13.90;8.30;;;;;;;;;;5055444;28;20567;-70
2023/05/25 06:41:49;;;;;;;9.50;7.23;;;;;;;;;;5055593;28;20456;-70
2023/05/25 06:44:17;;;;;;;10.13;7.43;;;;;;;;;;5071641;28;20517;-73
2023/05/25 06:46:44;;;;;;;13.23;6.83;;;;;;;;;;5073568;28;20462;-71
2023/05/25 06:49:13;;;;;;;13.67;8.03;;;;;;;;;;5073786;28;20475;-71
2023/05/25 06:51:40;;;;;;;11.40;7.80;;;;;;;;;;5073866;28;20451;-71
2023/05/25 06:54:07;;;;;;;15.93;8.77;;;;;;;;;;5073849;28;20455;-71
2023/05/25 06:56:34;;;;;;;14.53;7.57;;;;;;;;;;5074020;28;20471;-71
2023/05/25 06:59:01;;;;;;;17.13;9.33;;;;;;;;;;5073429;28;20471;-71
2023/05/25 07:01:28;;;;;;;27.00;10.90;;;;;;;;;;5073882;28;20448;-70
2023/05/25 07:03:55;;;;;;;10.70;7.97;;;;;;;;;;5073720;28;20458;-71
2023/05/25 07:06:24;;;;;;;10.77;7.40;;;;;;;;;;5073777;28;20487;-71
2023/05/25 07:08:51;;;;;;;21.40;9.50;;;;;;;;;;5073800;28;20479;-71
2023/05/25 07:11:20;;;;;;;9.20;6.73;;;;;;;;;;5073690;28;20459;-70
2023/05/25 07:13:48;;;;;;;9.77;8.00;;;;;;;;;;5073557;28;20459;-70
2023/05/25 07:16:15;;;;;;;12.63;8.00;;;;;;;;;;5074220;28;20447;-70
2023/05/25 07:18:42;;;;;;;14.03;8.33;;;;;;;;;;5076390;28;20487;-70
2023/05/25 07:21:10;;;;;;;12.30;7.10;;;;;;;;;;5072309;28;20448;-71
2023/05/25 07:23:39;;;;;;;14.17;7.37;;;;;;;;;;5073180;28;20460;-72
2023/05/25 07:26:06;;;;;;;16.33;8.47;;;;;;;;;;5072519;28;20529;-71
2023/05/25 07:28:33;;;;;;;19.67;9.50;;;;;;;;;;5072977;28;21019;-71
2023/05/25 07:31:01;;;;;;;15.23;9.03;;;;;;;;;;5072343;28;20846;-71
2023/05/25 07:33:28;;;;;;;18.40;8.50;;;;;;;;;;5073348;28;20503;-71
2023/05/25 07:35:55;;;;;;;11.57;8.37;;;;;;;;;;5073377;28;20456;-71
2023/05/25 07:38:22;;;;;;;12.20;8.33;;;;;;;;;;5072675;28;20491;-71
2023/05/25 07:40:51;;;;;;;15.23;8.70;;;;;;;;;;5073159;28;20448;-71
2023/05/25 07:43:18;;;;;;;12.60;8.03;;;;;;;;;;5072775;28;20456;-71
2023/05/25 07:45:45;;;;;;;14.60;9.03;;;;;;;;;;5072979;28;20484;-71
2023/05/25 07:48:12;;;;;;;13.70;7.87;;;;;;;;;;5072958;28;20454;-71
2023/05/25 07:50:40;;;;;;;11.60;8.10;;;;;;;;;;5072658;28;20479;-71
2023/05/25 07:53:07;;;;;;;15.20;8.60;;;;;;;;;;5072907;28;20455;-71
2023/05/25 07:55:34;;;;;;;11.80;8.93;;;;;;;;;;5072824;28;20455;-71
2023/05/25 07:58:02;;;;;;;14.00;9.73;;;;;;;;;;5072101;28;20447;-71
2023/05/25 08:00:29;;;;;;;12.27;8.00;;;;;;;;;;5072635;28;20961;-72
2023/05/25 08:02:57;;;;;;;13.60;8.80;;;;;;;;;;5072642;28;20455;-71
2023/05/25 08:05:24;;;;;;;14.17;8.67;;;;;;;;;;5072482;28;20498;-71
2023/05/25 08:07:51;;;;;;;12.80;8.20;;;;;;;;;;5072608;28;20459;-71
2023/05/25 08:10:18;;;;;;;14.30;9.90;;;;;;;;;;5072381;28;20487;-71
2023/05/25 08:12:45;;;;;;;8.83;8.03;;;;;;;;;;5072702;28;20829;-71
2023/05/25 08:15:13;;;;;;;10.10;8.00;;;;;;;;;;5072290;28;20444;-71
2023/05/25 08:17:41;;;;;;;16.93;8.87;;;;;;;;;;5072817;28;20856;-71
2023/05/25 08:20:09;;;;;;;13.40;9.40;;;;;;;;;;5071919;28;20511;-71
2023/05/25 08:22:36;;;;;;;10.00;9.00;;;;;;;;;;5072342;28;20447;-71
2023/05/25 08:25:03;;;;;;;13.90;8.10;;;;;;;;;;5072277;28;20480;-71
2023/05/25 08:27:30;;;;;;;14.30;8.70;;;;;;;;;;5072298;28;20452;-72
2023/05/25 08:29:57;;;;;;;11.70;9.40;;;;;;;;;;5065851;28;20491;-71
2023/05/25 08:32:26;;;;;;;15.93;9.77;;;;;;;;;;5072804;28;20463;-72
2023/05/25 08:34:53;;;;;;;11.23;9.20;;;;;;;;;;5073106;28;20455;-71
2023/05/25 08:37:22;;;;;;;11.30;8.47;;;;;;;;;;5072533;28;20452;-71
2023/05/25 08:39:49;;;;;;;14.93;8.57;;;;;;;;;;5073123;28;20476;-71
2023/05/25 08:42:16;;;;;;;11.60;9.10;;;;;;;;;;5073240;28;20460;-71
2023/05/25 08:44:43;;;;;;;13.40;9.37;;;;;;;;;;5073214;28;20451;-71
2023/05/25 08:47:12;;;;;;;12.90;10.20;;;;;;;;;;5073367;28;20448;-73
2023/05/25 08:49:40;;;;;;;15.90;9.50;;;;;;;;;;5072971;28;20476;-73
2023/05/25 08:52:11;;;;;;;16.50;9.40;;;;;;;;;;5073194;28;20831;-73
2023/05/25 08:54:38;;;;;;;11.67;8.70;;;;;;;;;;5073462;28;20450;-73
2023/05/25 08:57:08;;;;;;;12.90;7.87;;;;;;;;;;5073116;28;20812;-73
2023/05/25 08:59:38;;;;;;;13.90;9.20;;;;;;;;;;5073070;28;20467;-73
2023/05/25 09:02:14;;;;;;;14.10;8.97;;;;;;;;;;5072857;28;20451;-74
2023/05/25 09:04:43;;;;;;;14.00;9.10;;;;;;;;;;5073321;28;20446;-73
2023/05/25 09:07:10;;;;;;;12.17;9.37;;;;;;;;;;5073042;28;20447;-73
2023/05/25 09:09:38;;;;;;;14.50;9.57;;;;;;;;;;5072546;28;20479;-73
2023/05/25 09:12:06;;;;;;;10.93;9.23;;;;;;;;;;5072978;28;20439;-73
2023/05/25 09:14:33;;;;;;;13.80;9.43;;;;;;;;;;5073129;28;20498;-73
2023/05/25 09:17:01;;;;;;;12.07;9.30;;;;;;;;;;5073105;28;20452;-73
2023/05/25 09:19:28;;;;;;;11.00;9.83;;;;;;;;;;5072911;28;20467;-73
2023/05/25 09:21:56;;;;;;;9.80;8.47;;;;;;;;;;5072975;28;20458;-73
2023/05/25 09:24:24;;;;;;;14.33;9.00;;;;;;;;;;5072788;28;20448;-73
2023/05/25 09:26:51;;;;;;;12.60;8.47;;;;;;;;;;5072824;28;20491;-73
2023/05/25 09:29:18;;;;;;;9.63;8.73;;;;;;;;;;5072392;28;20995;-73
2023/05/25 09:31:47;;;;;;;12.23;8.70;;;;;;;;;;5072493;28;20539;-73
2023/05/25 09:34:14;;;;;;;10.70;8.70;;;;;;;;;;5072844;28;20522;-73
2023/05/25 09:36:41;;;;;;;16.40;9.00;;;;;;;;;;5072749;28;20458;-73
2023/05/25 09:39:10;;;;;;;9.23;8.23;;;;;;;;;;5072527;28;20471;-73
2023/05/25 09:41:37;;;;;;;11.50;8.43;;;;;;;;;;5072731;28;20447;-73
2023/05/25 09:44:05;;;;;;;11.33;8.40;;;;;;;;;;5072782;28;20487;-73
2023/05/25 09:46:37;;;;;;;12.33;8.47;;;;;;;;;;5072674;28;20523;-73
2023/05/25 09:49:05;;;;;;;14.13;7.90;;;;;;;;;;5072366;28;20471;-73
2023/05/25 09:51:32;;;;;;;11.97;7.87;;;;;;;;;;5072675;28;20488;-73
2023/05/25 09:54:00;;;;;;;8.70;7.77;;;;;;;;;;5072451;28;20462;-73
2023/05/25 09:56:32;;;;;;;10.30;7.57;;;;;;;;;;5072667;28;20472;-73
2023/05/25 09:59:00;;;;;;;9.90;8.23;;;;;;;;;;5072421;28;20476;-73
2023/05/25 10:01:27;;;;;;;9.20;7.90;;;;;;;;;;5072575;28;20451;-73
2023/05/25 10:03:55;;;;;;;9.77;7.33;;;;;;;;;;5072486;28;20458;-73
2023/05/25 10:06:22;;;;;;;9.17;8.10;;;;;;;;;;5072438;28;20480;-73
2023/05/25 10:08:50;;;;;;;8.90;7.53;;;;;;;;;;5072259;28;20482;-73
2023/05/25 10:11:17;;;;;;;8.90;7.60;;;;;;;;;;5072320;28;20452;-73
2023/05/25 10:13:46;;;;;;;7.70;6.83;;;;;;;;;;5072527;28;20501;-73
2023/05/25 10:16:16;;;;;;;12.10;8.93;;;;;;;;;;5072396;28;20455;-73
2023/05/25 10:18:47;;;;;;;10.63;8.17;;;;;;;;;;5072393;28;20476;-73
2023/05/25 10:21:16;;;;;;;11.60;7.47;;;;;;;;;;5072588;28;20542;-74
2023/05/25 10:23:46;;;;;;;16.33;8.87;;;;;;;;;;5076231;28;20881;-73
2023/05/25 10:26:14;;;;;;;11.03;7.27;;;;;;;;;;5075779;28;20479;-73
2023/05/25 10:28:43;;;;;;;7.47;6.77;;;;;;;;;;5075677;28;21015;-73
2023/05/25 10:31:12;;;;;;;8.73;7.83;;;;;;;;;;5075248;28;20949;-73
2023/05/25 10:33:40;;;;;;;12.00;9.10;;;;;;;;;;5076005;28;20810;-73
2023/05/25 10:36:07;;;;;;;8.63;6.97;;;;;;;;;;5075336;28;20475;-73
2023/05/25 10:38:34;;;;;;;8.90;7.43;;;;;;;;;;5075721;28;21069;-74
2023/05/25 10:41:03;;;;;;;13.23;7.77;;;;;;;;;;5075586;28;20455;-74
2023/05/25 10:43:31;;;;;;;10.10;7.33;;;;;;;;;;5075931;28;20937;-74
2023/05/25 10:45:58;;;;;;;8.40;7.50;;;;;;;;;;5075539;28;20487;-74
2023/05/25 10:48:35;;;;;;;13.70;7.23;;;;;;;;;;5075280;28;20483;-74
2023/05/25 10:51:02;;;;;;;12.80;8.53;;;;;;;;;;5075585;28;20493;-74
2023/05/25 10:53:30;;;;;;;9.50;8.07;;;;;;;;;;5075808;28;20479;-74
2023/05/25 10:56:04;;;;;;;9.83;7.40;;;;;;;;;;5075347;28;20479;-74
2023/05/25 10:58:31;;;;;;;14.00;8.00;;;;;;;;;;5074153;28;20988;-74
2023/05/25 11:00:59;;;;;;;13.10;8.53;;;;;;;;;;5074685;28;20953;-74
2023/05/25 11:03:41;;;;;;;9.20;7.63;;;;;;;;;;5075322;28;20964;-73
2023/05/25 11:06:10;;;;;;;9.60;7.07;;;;;;;;;;5074898;28;20487;-73
2023/05/25 11:08:49;;;;;;;11.97;8.03;;;;;;;;;;5075096;28;20584;-74
2023/05/25 11:11:16;;;;;;;8.97;8.07;;;;;;;;;;5075045;28;20483;-74
2023/05/25 11:13:45;;;;;;;10.93;8.17;;;;;;;;;;5075307;28;20451;-74
2023/05/25 11:16:34;;;;;;;11.13;7.70;;;;;;;;;;5074957;28;20456;-74
2023/05/25 11:19:01;;;;;;;8.73;7.47;;;;;;;;;;5074866;28;20529;-74
2023/05/25 11:21:43;;;;;;;8.57;6.90;;;;;;;;;;5074921;28;20486;-74
2023/05/25 11:24:16;;;;;;;6.83;6.13;;;;;;;;;;5074919;28;20455;-74
2023/05/25 11:26:54;;;;;;;10.87;6.93;;;;;;;;;;5075190;28;20487;-74
2023/05/25 11:29:24;;;;;;;6.70;6.00;;;;;;;;;;5074605;28;20532;-74
2023/05/25 11:31:52;;;;;;;8.60;6.13;;;;;;;;;;5074454;28;20501;-74
2023/05/25 11:34:21;;;;;;;7.83;6.40;;;;;;;;;;5074607;28;20495;-74
2023/05/25 11:36:52;;;;;;;8.63;7.20;;;;;;;;;;5074754;28;20483;-74
2023/05/25 11:39:21;;;;;;;7.33;6.40;;;;;;;;;;5074368;28;20471;-73
2023/05/25 11:41:50;;;;;;;8.13;6.23;;;;;;;;;;5074628;28;20456;-74
2023/05/25 11:44:26;;;;;;;12.17;7.10;;;;;;;;;;5074956;28;20562;-74
2023/05/25 11:46:55;;;;;;;7.17;6.43;;;;;;;;;;5074438;28;20489;-74
2023/05/25 11:49:23;;;;;;;7.83;6.73;;;;;;;;;;5074355;28;20529;-74
2023/05/25 11:51:52;;;;;;;7.57;6.10;;;;;;;;;;5074310;28;20509;-74
2023/05/25 11:54:23;;;;;;;8.60;7.00;;;;;;;;;;5074277;28;20459;-74
2023/05/25 11:56:50;;;;;;;10.00;7.00;;;;;;;;;;5074207;28;20539;-74
2023/05/25 11:59:17;;;;;;;7.50;6.80;;;;;;;;;;5073910;28;20479;-75
2023/05/25 12:01:44;;;;;;;10.13;7.00;;;;;;;;;;5074125;28;20447;-74
2023/05/25 12:04:12;;;;;;;7.27;6.67;;;;;;;;;;5074012;28;20451;-74
2023/05/25 12:06:39;;;;;;;7.07;6.37;;;;;;;;;;5074110;28;20483;-74
2023/05/25 12:09:12;;;;;;;7.87;6.30;;;;;;;;;;5068737;28;20938;-74
2023/05/25 12:11:44;;;;;;;8.00;6.17;;;;;;;;;;5072584;28;20796;-74
2023/05/25 12:14:11;;;;;;;11.30;6.70;;;;;;;;;;5072613;28;20541;-74
2023/05/25 12:16:39;;;;;;;8.30;6.97;;;;;;;;;;5072426;28;20447;-74
2023/05/25 12:19:07;;;;;;;7.97;6.40;;;;;;;;;;5072179;28;20506;-74
2023/05/25 12:21:35;;;;;;;11.23;5.27;;;;;;;;;;5072371;28;20878;-74
2023/05/25 12:24:02;;;;;;;8.60;5.97;;;;;;;;;;5072008;28;20957;-74
2023/05/25 12:26:30;;;;;;;8.23;6.33;;;;;;;;;;5072122;28;21019;-74
2023/05/25 12:28:58;;;;;;;8.30;6.30;;;;;;;;;;5071920;28;20522;-74
2023/05/25 12:31:26;;;;;;;6.93;6.27;;;;;;;;;;5071624;28;20487;-74
2023/05/25 12:34:06;;;;;;;10.50;6.97;;;;;;;;;;5061554;28;20468;-74
2023/05/25 12:36:37;;;;;;;7.03;5.80;;;;;;;;;;5052172;28;20444;-74
2023/05/25 12:39:04;;;;;;;9.60;6.33;;;;;;;;;;5051547;28;20469;-74
2023/05/25 12:41:42;;;;;;;10.10;6.80;;;;;;;;;;5052150;28;20488;-74
2023/05/25 12:44:16;;;;;;;8.10;6.37;;;;;;;;;;5051385;28;20445;-74
2023/05/25 12:46:43;;;;;;;11.53;7.00;;;;;;;;;;5051926;28;20518;-74
2023/05/25 12:49:22;;;;;;;7.90;7.10;;;;;;;;;;5070044;28;20473;-74
2023/05/25 12:51:49;;;;;;;10.87;8.67;;;;;;;;;;5073076;28;20452;-74
2023/05/25 12:54:17;;;;;;;9.27;7.10;;;;;;;;;;5073290;28;20833;-74
2023/05/25 12:56:56;;;;;;;7.73;6.07;;;;;;;;;;5073239;28;20451;-73
2023/05/25 12:59:23;;;;;;;12.53;6.63;;;;;;;;;;5072814;28;20468;-74
2023/05/25 13:01:50;;;;;;;11.53;7.13;;;;;;;;;;5073108;28;20462;-74
2023/05/25 13:04:17;;;;;;;8.70;7.23;;;;;;;;;;5073067;28;20543;-74
2023/05/25 13:06:44;;;;;;;9.80;7.43;;;;;;;;;;5073122;28;20575;-74
2023/05/25 13:09:11;;;;;;;15.03;7.73;;;;;;;;;;5072814;28;20996;-74
2023/05/25 13:11:38;;;;;;;7.17;6.37;;;;;;;;;;5073119;28;20820;-74
2023/05/25 13:14:07;;;;;;;7.67;6.03;;;;;;;;;;5073032;28;20452;-74
2023/05/25 13:16:34;;;;;;;8.80;5.93;;;;;;;;;;5073146;28;20451;-74
2023/05/25 13:19:01;;;;;;;9.43;6.83;;;;;;;;;;5072750;28;20474;-74
2023/05/25 13:21:28;;;;;;;9.30;6.97;;;;;;;;;;5073158;28;20459;-74
2023/05/25 13:23:55;;;;;;;8.60;7.50;;;;;;;;;;5072994;28;20452;-74
2023/05/25 13:26:23;;;;;;;10.70;7.40;;;;;;;;;;5073226;28;20963;-73
2023/05/25 13:28:50;;;;;;;7.33;6.20;;;;;;;;;;5072428;28;20487;-74
2023/05/25 13:31:19;;;;;;;9.27;6.77;;;;;;;;;;5072206;28;20513;-73
2023/05/25 13:33:46;;;;;;;7.03;6.27;;;;;;;;;;5072944;28;20455;-74
2023/05/25 13:36:14;;;;;;;10.13;7.10;;;;;;;;;;5072785;28;20462;-74
2023/05/25 13:38:41;;;;;;;8.57;6.17;;;;;;;;;;5072619;28;20480;-73
2023/05/25 13:41:09;;;;;;;7.17;6.47;;;;;;;;;;5072584;28;20470;-74
2023/05/25 13:43:36;;;;;;;9.13;7.17;;;;;;;;;;5072875;28;20949;-73
2023/05/25 13:46:03;;;;;;;16.40;6.67;;;;;;;;;;5072775;28;20836;-74
2023/05/25 13:48:31;;;;;;;7.83;6.67;;;;;;;;;;5072415;28;20491;-74
2023/05/25 13:50:59;;;;;;;13.33;7.00;;;;;;;;;;5072654;28;20858;-74
2023/05/25 13:53:26;;;;;;;7.30;6.23;;;;;;;;;;5072629;28;20486;-74
2023/05/25 13:55:53;;;;;;;7.83;6.03;;;;;;;;;;5074104;28;20941;-74
2023/05/25 13:58:20;;;;;;;10.27;5.77;;;;;;;;;;5076522;28;20820;-74
2023/05/25 14:00:48;;;;;;;9.00;6.30;;;;;;;;;;5076516;28;20462;-74
2023/05/25 14:03:15;;;;;;;7.40;5.70;;;;;;;;;;5076610;28;20460;-74
2023/05/25 14:05:43;;;;;;;9.93;5.80;;;;;;;;;;5076727;28;20937;-74
2023/05/25 14:08:11;;;;;;;10.07;5.60;;;;;;;;;;5077999;28;20490;-78
2023/05/25 14:10:38;;;;;;;9.40;5.90;;;;;;;;;;5081821;28;20900;-76
2023/05/25 14:13:05;;;;;;;8.70;5.53;;;;;;;;;;5080249;28;20451;-76
2023/05/25 14:15:32;;;;;;;11.80;7.40;;;;;;;;;;5080980;28;20451;-76
2023/05/25 14:18:00;;;;;;;9.57;6.27;;;;;;;;;;5080475;28;20447;-76
2023/05/25 14:20:27;;;;;;;7.60;5.80;;;;;;;;;;5081017;28;20467;-76
2023/05/25 14:22:55;;;;;;;9.97;5.90;;;;;;;;;;5079853;28;20822;-75
2023/05/25 14:25:22;;;;;;;6.53;4.97;;;;;;;;;;5080112;28;20447;-76
2023/05/25 14:27:49;;;;;;;7.97;6.27;;;;;;;;;;5079194;28;20593;-76
2023/05/25 14:30:17;;;;;;;9.70;6.00;;;;;;;;;;5079062;28;20475;-76
2023/05/25 14:32:44;;;;;;;7.97;7.17;;;;;;;;;;5079651;28;20421;-75